createdAt,value
2018-05-08T00:02:22.334Z,11.80
2018-05-08T00:04:48.670Z,11.53
2018-05-08T00:07:21.901Z,9.13
2018-05-08T00:09:48.320Z,8.40
2018-05-08T00:12:14.635Z,8.83
2018-05-08T00:14:43.076Z,12.47
2018-05-08T00:17:09.393Z,8.77
2018-05-08T00:19:35.761Z,8.67
2018-05-08T00:22:02.171Z,8.30
2018-05-08T00:24:29.621Z,10.77
2018-05-08T00:26:56.010Z,13.63
2018-05-08T00:29:22.429Z,14.10
2018-05-08T00:31:48.757Z,10.50
2018-05-08T00:34:15.179Z,9.63
2018-05-08T00:36:41.572Z,7.83
2018-05-08T00:39:07.862Z,9.30
2018-05-08T00:41:34.225Z,9.40
2018-05-08T00:44:04.057Z,9.47
2018-05-08T00:46:30.405Z,10.20
2018-05-08T00:48:56.711Z,8.50
2018-05-08T00:51:23.107Z,11.27
2018-05-08T00:53:49.487Z,9.87
2018-05-08T00:56:15.869Z,8.13
2018-05-08T00:58:42.228Z,9.07
2018-05-08T01:01:08.676Z,7.50
2018-05-08T01:03:38.644Z,11.27
2018-05-08T01:06:04.991Z,14.10
2018-05-08T01:08:31.392Z,9.67
2018-05-08T01:10:57.699Z,8.63
2018-05-08T01:13:25.157Z,9.20
2018-05-08T01:15:51.594Z,9.07
2018-05-08T01:18:17.928Z,10.17
2018-05-08T01:20:44.299Z,8.80
2018-05-08T01:23:10.820Z,9.83
2018-05-08T01:25:37.142Z,11.60
2018-05-08T01:28:03.495Z,13.70
2018-05-08T01:30:29.791Z,8.87
2018-05-08T01:33:00.058Z,12.23
2018-05-08T01:35:26.441Z,10.20
2018-05-08T01:37:52.755Z,8.83
2018-05-08T01:40:19.108Z,10.23
2018-05-08T01:42:49.504Z,15.33
2018-05-08T01:45:15.818Z,9.87
2018-05-08T01:47:42.206Z,9.70
2018-05-08T01:50:08.557Z,11.50
2018-05-08T01:52:34.848Z,10.67
2018-05-08T01:55:02.282Z,11.67
2018-05-08T01:57:28.659Z,8.90
2018-05-08T01:59:54.987Z,9.97
2018-05-08T02:02:21.310Z,9.00
2018-05-08T02:04:47.794Z,14.33
2018-05-08T02:07:14.225Z,13.20
2018-05-08T02:09:40.552Z,9.93
2018-05-08T02:12:07.004Z,10.27
2018-05-08T02:14:34.406Z,8.97
2018-05-08T02:17:00.741Z,10.80
2018-05-08T02:19:27.095Z,11.93
2018-05-08T02:21:53.455Z,11.53
2018-05-08T02:24:19.869Z,8.87
2018-05-08T02:26:46.197Z,12.27
2018-05-08T02:29:12.589Z,11.07
2018-05-08T02:31:39.036Z,9.13
2018-05-08T02:34:05.450Z,13.23
2018-05-08T02:36:31.748Z,8.80
2018-05-08T02:38:58.054Z,11.70
2018-05-08T02:41:24.491Z,8.73
2018-05-08T02:43:57.821Z,10.13
2018-05-08T02:46:24.131Z,13.30
2018-05-08T02:48:50.455Z,10.13
2018-05-08T02:51:16.816Z,9.13
2018-05-08T02:53:50.290Z,8.57
2018-05-08T02:56:16.686Z,10.80
2018-05-08T02:58:43.077Z,10.73
2018-05-08T03:01:09.514Z,10.10
2018-05-08T03:03:37.882Z,13.50
2018-05-08T03:06:04.345Z,11.70
2018-05-08T03:08:30.693Z,11.53
2018-05-08T03:10:57.087Z,11.47
2018-05-08T03:13:23.517Z,13.87
2018-05-08T03:15:49.909Z,9.97
2018-05-08T03:18:16.247Z,12.07
2018-05-08T03:20:42.706Z,11.33
2018-05-08T03:23:11.356Z,14.27
2018-05-08T03:25:37.881Z,11.90
2018-05-08T03:28:04.331Z,12.30
2018-05-08T03:30:30.761Z,11.77
2018-05-08T03:32:57.315Z,10.10
2018-05-08T03:35:23.670Z,12.97
2018-05-08T03:37:50.073Z,10.50
2018-05-08T03:40:16.694Z,10.27
2018-05-08T03:42:43.060Z,15.27
2018-05-08T03:45:09.489Z,12.47
2018-05-08T03:47:35.824Z,8.20
2018-05-08T03:50:02.166Z,12.00
2018-05-08T03:52:28.546Z,10.30
2018-05-08T03:54:58.228Z,12.73
2018-05-08T03:57:25.019Z,7.20
2018-05-08T03:59:51.421Z,9.33
2018-05-08T04:02:30.060Z,11.57
2018-05-08T04:05:09.669Z,9.47
2018-05-08T04:07:48.371Z,7.40
2018-05-08T04:10:14.781Z,8.77
2018-05-08T04:12:41.188Z,11.60
2018-05-08T04:15:09.808Z,9.70
2018-05-08T04:17:36.229Z,11.87
2018-05-08T04:20:02.734Z,9.60
2018-05-08T04:22:29.237Z,10.23
2018-05-08T04:24:59.269Z,8.47
2018-05-08T04:27:25.723Z,8.60
2018-05-08T04:29:52.095Z,11.67
2018-05-08T04:32:18.493Z,9.73
2018-05-08T04:34:45.904Z,10.20
2018-05-08T04:37:12.229Z,7.47
2018-05-08T04:39:38.721Z,12.37
2018-05-08T04:42:05.160Z,9.17
2018-05-08T04:44:32.596Z,7.93
2018-05-08T04:46:58.980Z,8.50
2018-05-08T04:49:25.380Z,9.93
2018-05-08T04:51:51.791Z,8.57
2018-05-08T04:54:22.379Z,10.40
2018-05-08T04:56:48.740Z,15.40
2018-05-08T04:59:15.069Z,16.93
2018-05-08T05:01:41.483Z,12.70
2018-05-08T05:04:08.937Z,13.97
2018-05-08T05:06:35.382Z,13.93
2018-05-08T05:09:01.819Z,13.00
2018-05-08T05:11:28.232Z,8.70
2018-05-08T05:13:54.885Z,9.57
2018-05-08T05:16:21.417Z,8.70
2018-05-08T05:18:47.895Z,12.23
2018-05-08T05:21:14.362Z,9.87
2018-05-08T05:23:40.789Z,9.10
2018-05-08T05:26:07.206Z,10.87
2018-05-08T05:28:33.582Z,12.60
2018-05-08T05:31:00.084Z,9.43
2018-05-08T05:33:26.540Z,8.67
2018-05-08T05:35:52.984Z,10.23
2018-05-08T05:38:19.481Z,9.47
2018-05-08T05:40:45.894Z,12.80
2018-05-08T05:43:13.412Z,9.93
2018-05-08T05:45:39.843Z,12.13
2018-05-08T05:48:06.242Z,10.13
2018-05-08T05:50:32.656Z,10.30
2018-05-08T05:52:59.080Z,11.53
2018-05-08T05:55:25.529Z,9.83
2018-05-08T05:57:51.859Z,12.03
2018-05-08T06:00:18.295Z,11.23
2018-05-08T06:02:44.686Z,9.57
2018-05-08T06:05:12.165Z,12.07
2018-05-08T06:07:38.607Z,9.47
2018-05-08T06:10:04.960Z,13.23
2018-05-08T06:12:31.388Z,11.37
2018-05-08T06:15:01.529Z,8.40
2018-05-08T06:17:27.913Z,11.57
2018-05-08T06:19:54.701Z,13.00
2018-05-08T06:22:21.305Z,10.30
2018-05-08T06:24:48.967Z,12.77
2018-05-08T06:27:15.459Z,9.60
2018-05-08T06:29:42.035Z,11.17
2018-05-08T06:32:08.510Z,15.20
2018-05-08T06:34:34.949Z,9.13
2018-05-08T06:37:01.490Z,11.17
2018-05-08T06:39:27.944Z,11.27
2018-05-08T06:41:54.382Z,13.93
2018-05-08T06:44:24.263Z,9.50
2018-05-08T06:46:50.719Z,9.10
2018-05-08T06:49:17.210Z,10.63
2018-05-08T06:51:43.786Z,11.27
2018-05-08T06:54:13.595Z,11.43
2018-05-08T06:56:40.046Z,9.40
2018-05-08T06:59:06.449Z,11.90
2018-05-08T07:01:32.834Z,9.43
2018-05-08T07:04:00.198Z,11.47
2018-05-08T07:06:26.644Z,9.63
2018-05-08T07:08:53.067Z,10.07
2018-05-08T07:11:19.492Z,9.00
2018-05-08T07:13:46.991Z,10.40
2018-05-08T07:16:13.495Z,10.73
2018-05-08T07:18:39.810Z,12.50
2018-05-08T07:21:06.295Z,11.87
2018-05-08T07:23:36.011Z,9.47
2018-05-08T07:26:02.407Z,9.53
2018-05-08T07:28:28.855Z,9.30
2018-05-08T07:30:55.284Z,9.60
2018-05-08T07:33:25.439Z,10.17
2018-05-08T07:35:51.954Z,11.40
2018-05-08T07:38:18.331Z,9.47
2018-05-08T07:40:44.738Z,13.67
2018-05-08T07:43:11.141Z,12.57
2018-05-08T07:45:37.865Z,9.50
2018-05-08T07:48:04.236Z,11.37
2018-05-08T07:50:30.646Z,13.17
2018-05-08T07:52:57.081Z,9.37
2018-05-08T07:55:24.528Z,9.00
2018-05-08T07:57:50.940Z,11.47
2018-05-08T08:00:17.343Z,9.93
2018-05-08T08:02:43.748Z,8.33
2018-05-08T08:05:20.858Z,9.67
2018-05-08T08:07:47.227Z,13.47
2018-05-08T08:10:13.580Z,8.73
2018-05-08T08:12:39.958Z,9.23
2018-05-08T08:15:06.436Z,8.57
2018-05-08T08:17:32.841Z,14.23
2018-05-08T08:19:59.403Z,8.20
2018-05-08T08:22:25.800Z,10.50
2018-05-08T08:24:52.317Z,10.17
2018-05-08T08:27:18.784Z,8.17
2018-05-08T08:29:45.294Z,10.10
2018-05-08T08:32:11.712Z,14.47
2018-05-08T08:34:43.427Z,8.67
2018-05-08T08:37:09.809Z,7.10
2018-05-08T08:39:36.240Z,9.23
2018-05-08T08:42:02.688Z,8.83
2018-05-08T08:44:29.135Z,8.23
2018-05-08T08:46:55.533Z,9.90
2018-05-08T08:49:22.048Z,8.60
2018-05-08T08:51:48.585Z,7.33
2018-05-08T08:54:23.179Z,6.87
2018-05-08T08:56:49.567Z,8.80
2018-05-08T08:59:16.026Z,6.83
2018-05-08T09:01:42.443Z,8.33
2018-05-08T09:04:08.905Z,7.80
2018-05-08T09:06:35.383Z,8.50
2018-05-08T09:09:01.809Z,8.67
2018-05-08T09:11:28.192Z,6.93
2018-05-08T09:13:54.754Z,7.27
2018-05-08T09:16:21.184Z,7.73
2018-05-08T09:18:47.577Z,6.33
2018-05-08T09:21:14.000Z,12.60
2018-05-08T09:23:43.638Z,9.17
2018-05-08T09:26:09.977Z,6.57
2018-05-08T09:28:36.373Z,10.63
2018-05-08T09:31:02.872Z,6.73
2018-05-08T09:33:36.913Z,6.60
2018-05-08T09:36:03.349Z,6.20
2018-05-08T09:38:29.764Z,8.03
2018-05-08T09:40:56.205Z,7.67
2018-05-08T09:43:25.256Z,7.90
2018-05-08T09:45:52.631Z,8.90
2018-05-08T09:48:19.467Z,6.03
2018-05-08T09:50:45.984Z,6.80
2018-05-08T09:53:12.367Z,11.93
2018-05-08T09:55:38.766Z,6.93
2018-05-08T09:58:05.268Z,6.70
2018-05-08T10:00:31.723Z,8.60
2018-05-08T10:02:58.076Z,11.60
2018-05-08T10:05:33.017Z,9.80
2018-05-08T10:07:59.431Z,6.93
2018-05-08T10:10:25.880Z,10.37
2018-05-08T10:12:52.305Z,8.13
2018-05-08T10:15:19.806Z,10.07
2018-05-08T10:17:46.267Z,6.00
2018-05-08T10:20:12.844Z,6.30
2018-05-08T10:22:39.259Z,6.07
2018-05-08T10:25:05.678Z,4.83
2018-05-08T10:27:32.159Z,4.50
2018-05-08T10:29:58.541Z,7.20
2018-05-08T10:32:24.963Z,11.23
2018-05-08T10:34:57.393Z,5.57
2018-05-08T10:37:23.758Z,5.83
2018-05-08T10:39:50.178Z,6.17
2018-05-08T10:42:16.601Z,4.60
2018-05-08T10:44:49.935Z,3.93
2018-05-08T10:47:16.342Z,6.27
2018-05-08T10:49:43.140Z,4.33
2018-05-08T10:52:09.595Z,5.43
2018-05-08T10:54:42.652Z,5.37
2018-05-08T10:57:09.187Z,7.10
2018-05-08T10:59:35.588Z,5.40
2018-05-08T11:02:01.985Z,3.83
2018-05-08T11:04:29.477Z,4.10
2018-05-08T11:06:55.867Z,7.47
2018-05-08T11:09:22.250Z,8.27
2018-05-08T11:11:48.754Z,5.27
2018-05-08T11:14:18.967Z,5.87
2018-05-08T11:16:45.368Z,3.53
2018-05-08T11:19:11.785Z,4.90
2018-05-08T11:21:38.142Z,3.70
2018-05-08T11:24:04.537Z,4.90
2018-05-08T11:26:31.089Z,5.03
2018-05-08T11:28:57.358Z,3.63
2018-05-08T11:31:23.709Z,4.53
2018-05-08T11:33:51.331Z,5.03
2018-05-08T11:36:17.832Z,4.27
2018-05-08T11:38:44.265Z,3.10
2018-05-08T11:41:10.756Z,5.17
2018-05-08T11:43:48.092Z,7.70
2018-05-08T11:46:14.612Z,3.40
2018-05-08T11:48:41.001Z,6.63
2018-05-08T11:51:07.402Z,5.23
2018-05-08T11:53:33.859Z,3.53
2018-05-08T11:56:00.286Z,4.60
2018-05-08T11:58:26.652Z,8.67
2018-05-08T12:00:53.147Z,4.77
2018-05-08T12:03:19.463Z,3.50
2018-05-08T12:05:45.818Z,2.93
2018-05-08T12:08:12.178Z,2.63
2018-05-08T12:10:38.641Z,4.63
2018-05-08T12:13:05.024Z,3.10
2018-05-08T12:15:32.573Z,3.47
2018-05-08T12:17:58.977Z,3.43
2018-05-08T12:20:25.337Z,3.63
2018-05-08T12:22:51.863Z,5.00
2018-05-08T12:25:25.926Z,2.63
2018-05-08T12:27:52.405Z,5.87
2018-05-08T12:30:18.813Z,3.67
2018-05-08T12:32:45.332Z,4.73
2018-05-08T12:35:13.779Z,7.33
2018-05-08T12:37:40.308Z,2.97
2018-05-08T12:40:06.862Z,3.97
2018-05-08T12:42:33.360Z,6.53
2018-05-08T12:45:01.892Z,7.93
2018-05-08T12:47:28.341Z,4.63
2018-05-08T12:49:54.888Z,4.17
2018-05-08T12:52:21.329Z,4.77
2018-05-08T12:54:49.806Z,3.57
2018-05-08T12:57:16.325Z,4.40
2018-05-08T12:59:42.822Z,5.77
2018-05-08T13:02:09.306Z,2.70
2018-05-08T13:04:35.853Z,3.03
2018-05-08T13:07:02.333Z,3.63
2018-05-08T13:09:28.801Z,2.90
2018-05-08T13:11:55.323Z,4.83
2018-05-08T13:14:22.802Z,6.70
2018-05-08T13:16:49.316Z,4.77
2018-05-08T13:19:15.873Z,3.97
2018-05-08T13:21:42.400Z,5.87
2018-05-08T13:24:08.925Z,3.77
2018-05-08T13:26:35.452Z,4.20
2018-05-08T13:29:01.881Z,4.30
2018-05-08T13:31:28.466Z,2.80
2018-05-08T13:33:55.048Z,4.13
2018-05-08T13:36:21.521Z,8.17
2018-05-08T13:38:47.894Z,4.53
2018-05-08T13:41:14.342Z,7.00
2018-05-08T13:43:40.788Z,5.93
2018-05-08T13:46:07.185Z,4.63
2018-05-08T13:48:33.665Z,4.23
2018-05-08T13:51:00.031Z,6.30
2018-05-08T13:53:27.491Z,3.23
2018-05-08T13:55:54.444Z,4.63
2018-05-08T13:58:21.066Z,3.30
2018-05-08T14:00:47.489Z,5.33
2018-05-08T14:03:13.903Z,5.73
2018-05-08T14:05:40.368Z,3.67
2018-05-08T14:08:06.757Z,3.50
2018-05-08T14:10:33.126Z,6.93
2018-05-08T14:12:59.521Z,8.70
2018-05-08T14:15:27.924Z,5.90
2018-05-08T14:17:54.317Z,5.83
2018-05-08T14:20:20.853Z,4.40
2018-05-08T14:22:47.286Z,6.00
2018-05-08T14:25:13.783Z,4.53
2018-05-08T14:27:40.202Z,4.57
2018-05-08T14:30:06.561Z,3.43
2018-05-08T14:32:32.936Z,3.70
2018-05-08T14:34:59.316Z,5.70
2018-05-08T14:37:25.840Z,6.57
2018-05-08T14:39:52.331Z,3.57
2018-05-08T14:42:18.722Z,3.17
2018-05-08T14:44:45.215Z,3.60
2018-05-08T14:47:11.632Z,2.93
2018-05-08T14:49:38.116Z,5.90
2018-05-08T14:52:04.407Z,6.33
2018-05-08T14:54:30.829Z,3.70
2018-05-08T14:56:57.232Z,6.07
2018-05-08T14:59:23.681Z,4.63
2018-05-08T15:01:50.043Z,3.87
2018-05-08T15:04:16.596Z,4.97
2018-05-08T15:06:42.972Z,5.50
2018-05-08T15:09:09.373Z,5.50
2018-05-08T15:11:35.732Z,3.23
2018-05-08T15:14:04.131Z,5.10
2018-05-08T15:16:30.542Z,5.40
2018-05-08T15:18:56.966Z,7.63
2018-05-08T15:21:23.435Z,5.27
2018-05-08T15:23:50.014Z,7.90
2018-05-08T15:26:16.519Z,6.10
2018-05-08T15:28:43.229Z,3.87
2018-05-08T15:31:09.668Z,4.53
2018-05-08T15:33:36.086Z,4.07
2018-05-08T15:36:02.756Z,8.43
2018-05-08T15:38:29.238Z,4.60
2018-05-08T15:40:55.752Z,3.93
2018-05-08T15:43:22.139Z,4.00
2018-05-08T15:45:48.657Z,4.47
2018-05-08T15:48:15.259Z,5.97
2018-05-08T15:50:41.829Z,3.60
2018-05-08T15:53:08.430Z,4.77
2018-05-08T15:55:34.936Z,8.00
2018-05-08T15:58:01.454Z,6.17
2018-05-08T16:00:28.093Z,6.70
2018-05-08T16:02:54.622Z,4.10
2018-05-08T16:05:22.394Z,3.23
2018-05-08T16:07:49.059Z,4.07
2018-05-08T16:10:15.464Z,4.17
2018-05-08T16:12:41.874Z,5.93
2018-05-08T16:15:08.488Z,7.93
2018-05-08T16:17:34.842Z,4.93
2018-05-08T16:20:01.244Z,4.90
2018-05-08T16:22:27.652Z,4.60
2018-05-08T16:24:54.356Z,5.23
2018-05-08T16:27:20.905Z,7.03
2018-05-08T16:29:47.434Z,3.17
2018-05-08T16:32:13.898Z,6.93
2018-05-08T16:34:40.438Z,3.13
2018-05-08T16:37:06.884Z,5.47
2018-05-08T16:39:33.325Z,3.60
2018-05-08T16:41:59.773Z,5.30
2018-05-08T16:44:26.418Z,4.80
2018-05-08T16:46:52.996Z,4.13
2018-05-08T16:49:19.464Z,5.00
2018-05-08T16:51:46.085Z,7.60
2018-05-08T16:54:16.164Z,7.97
2018-05-08T16:56:42.603Z,5.97
2018-05-08T16:59:09.183Z,6.33
2018-05-08T17:01:35.664Z,6.40
2018-05-08T17:04:02.159Z,4.60
2018-05-08T17:06:28.625Z,3.83
2018-05-08T17:08:55.052Z,5.50
2018-05-08T17:11:21.457Z,5.77
2018-05-08T17:13:49.011Z,6.53
2018-05-08T17:16:15.655Z,8.03
2018-05-08T17:18:42.189Z,5.83
2018-05-08T17:21:08.683Z,5.47
2018-05-08T17:23:36.044Z,3.63
2018-05-08T17:26:02.557Z,5.37
2018-05-08T17:28:29.060Z,7.57
2018-05-08T17:30:55.458Z,11.17
2018-05-08T17:33:21.945Z,8.23
2018-05-08T17:35:48.543Z,6.20
2018-05-08T17:38:15.026Z,5.47
2018-05-08T17:40:41.387Z,4.07
2018-05-08T17:43:08.681Z,3.60
2018-05-08T17:45:39.145Z,4.33
2018-05-08T17:48:05.634Z,7.40
2018-05-08T17:50:32.055Z,3.87
2018-05-08T17:52:58.437Z,4.87
2018-05-08T17:55:25.049Z,5.77
2018-05-08T17:57:52.287Z,3.40
2018-05-08T18:00:19.016Z,4.17
2018-05-08T18:02:45.788Z,5.30
2018-05-08T18:05:12.369Z,3.27
2018-05-08T18:07:38.713Z,7.23
2018-05-08T18:10:05.170Z,4.10
2018-05-08T18:12:31.913Z,6.47
2018-05-08T18:14:58.508Z,4.03
2018-05-08T18:17:24.957Z,5.97
2018-05-08T18:19:51.615Z,5.37
2018-05-08T18:22:26.897Z,2.77
2018-05-08T18:24:53.962Z,4.07
2018-05-08T18:27:20.700Z,4.13
2018-05-08T18:29:47.373Z,7.50
2018-05-08T18:32:13.858Z,4.87
2018-05-08T18:34:42.365Z,2.80
2018-05-08T18:37:08.813Z,2.80
2018-05-08T18:39:35.240Z,3.77
2018-05-08T18:42:01.620Z,2.77
2018-05-08T18:44:28.057Z,7.73
2018-05-08T18:46:54.598Z,4.53
2018-05-08T18:49:21.303Z,5.53
2018-05-08T18:51:48.221Z,6.73
2018-05-08T18:54:16.273Z,4.83
2018-05-08T18:56:42.765Z,4.77
2018-05-08T18:59:09.447Z,2.43
2018-05-08T19:01:37.800Z,3.53
2018-05-08T19:04:05.996Z,2.80
2018-05-08T19:06:33.290Z,3.37
2018-05-08T19:08:59.944Z,7.07
2018-05-08T19:11:32.327Z,4.33
2018-05-08T19:13:59.174Z,3.27
2018-05-08T19:16:26.313Z,4.83
2018-05-08T19:18:58.904Z,5.63
2018-05-08T19:21:25.549Z,4.00
2018-05-08T19:24:00.235Z,2.87
2018-05-08T19:26:26.932Z,8.77
2018-05-08T19:28:59.477Z,3.50
2018-05-08T19:31:26.115Z,4.60
2018-05-08T19:33:52.713Z,2.83
2018-05-08T19:36:25.064Z,3.70
2018-05-08T19:38:51.533Z,5.27
2018-05-08T19:41:17.880Z,3.73
2018-05-08T19:43:45.580Z,4.70
2018-05-08T19:46:12.484Z,3.30
2018-05-08T19:48:38.901Z,4.30
2018-05-08T19:51:05.381Z,3.80
2018-05-08T19:53:31.779Z,6.20
2018-05-08T19:55:58.586Z,3.13
2018-05-08T19:58:25.072Z,3.97
2018-05-08T20:00:51.478Z,5.23
2018-05-08T20:03:17.982Z,4.13
2018-05-08T20:05:44.586Z,3.33
2018-05-08T20:08:10.924Z,3.93
2018-05-08T20:10:37.614Z,2.77
2018-05-08T20:13:04.171Z,3.57
2018-05-08T20:15:30.795Z,3.80
2018-05-08T20:17:57.578Z,6.13
2018-05-08T20:20:24.154Z,3.30
2018-05-08T20:22:50.490Z,6.13
2018-05-08T20:25:16.927Z,3.90
2018-05-08T20:27:43.443Z,2.80
2018-05-08T20:30:10.158Z,2.90
2018-05-08T20:32:37.370Z,2.57
2018-05-08T20:35:04.091Z,4.37
2018-05-08T20:37:31.239Z,4.37
2018-05-08T20:39:57.668Z,2.47
2018-05-08T20:42:24.187Z,3.07
2018-05-08T20:44:50.736Z,3.47
2018-05-08T20:47:17.118Z,2.20
2018-05-08T20:49:43.603Z,4.03
2018-05-08T20:52:10.383Z,4.07
2018-05-08T20:54:36.856Z,3.27
2018-05-08T20:57:03.327Z,5.00
2018-05-08T20:59:29.678Z,3.07
2018-05-08T21:01:56.185Z,3.33
2018-05-08T21:04:24.696Z,5.77
2018-05-08T21:06:51.036Z,2.80
2018-05-08T21:09:17.459Z,2.70
2018-05-08T21:11:43.975Z,4.83
2018-05-08T21:14:10.595Z,2.80
2018-05-08T21:16:37.051Z,2.67
2018-05-08T21:19:03.476Z,2.83
2018-05-08T21:21:29.827Z,3.70
2018-05-08T21:23:56.312Z,2.77
2018-05-08T21:26:22.744Z,2.23
2018-05-08T21:28:55.121Z,5.33
2018-05-08T21:31:21.547Z,2.20
2018-05-08T21:33:47.956Z,3.97
2018-05-08T21:36:14.354Z,3.50
2018-05-08T21:38:40.782Z,2.03
2018-05-08T21:41:07.126Z,5.53
2018-05-08T21:43:33.488Z,5.07
2018-05-08T21:45:59.899Z,4.10
2018-05-08T21:48:26.265Z,3.23
2018-05-08T21:50:52.644Z,2.53
2018-05-08T21:53:19.041Z,2.53
2018-05-08T21:55:45.548Z,4.83
2018-05-08T21:58:11.864Z,5.73
2018-05-08T22:00:38.223Z,2.90
2018-05-08T22:03:04.560Z,4.37
2018-05-08T22:05:31.110Z,5.00
2018-05-08T22:07:57.444Z,2.50
2018-05-08T22:10:23.848Z,5.23
2018-05-08T22:12:50.256Z,4.20
2018-05-08T22:15:17.686Z,2.50
2018-05-08T22:17:44.117Z,4.70
2018-05-08T22:20:10.501Z,3.43
2018-05-08T22:22:36.911Z,3.10
2018-05-08T22:25:05.397Z,3.03
2018-05-08T22:27:31.773Z,4.87
2018-05-08T22:29:58.084Z,2.47
2018-05-08T22:32:24.559Z,2.53
2018-05-08T22:34:52.031Z,2.23
2018-05-08T22:37:18.362Z,5.53
2018-05-08T22:39:44.746Z,2.43
2018-05-08T22:42:11.200Z,3.17
2018-05-08T22:44:37.603Z,3.80
2018-05-08T22:47:04.105Z,2.90
2018-05-08T22:49:30.490Z,2.43
2018-05-08T22:51:56.801Z,2.73
2018-05-08T22:54:23.192Z,3.80
2018-05-08T22:56:49.540Z,4.90
2018-05-08T22:59:15.836Z,6.17
2018-05-08T23:01:42.235Z,2.77
2018-05-08T23:04:08.704Z,1.97
2018-05-08T23:06:35.158Z,3.30
2018-05-08T23:09:01.572Z,3.63
2018-05-08T23:11:34.919Z,3.33
2018-05-08T23:14:01.382Z,3.37
2018-05-08T23:16:27.725Z,2.57
2018-05-08T23:18:54.097Z,2.93
2018-05-08T23:21:20.516Z,2.97
2018-05-08T23:23:46.812Z,4.10
2018-05-08T23:26:13.289Z,8.27
2018-05-08T23:28:39.725Z,3.60
2018-05-08T23:31:06.121Z,6.57
2018-05-08T23:33:32.472Z,5.83
2018-05-08T23:36:00.918Z,5.30
2018-05-08T23:38:27.303Z,2.83
2018-05-08T23:40:53.686Z,2.60
2018-05-08T23:43:20.149Z,3.53
2018-05-08T23:45:46.553Z,3.43
2018-05-08T23:48:12.909Z,4.23
2018-05-08T23:50:39.252Z,4.67
2018-05-08T23:53:05.621Z,3.60
2018-05-08T23:55:33.000Z,4.77
2018-05-08T23:57:59.409Z,3.63
